AirNav   Everest Fuels
 
 638 users online  

S70 Othello Municipal Airport
Othello, Washington, USA

GOING TO OTHELLO?


FAA INFORMATION EFFECTIVE 26 MARCH 2020

Location

FAA Identifier: S70
Lat/Long: 46-47-39.2000N 119-04-48.4000W
46-47.653333N 119-04.806667W
46.7942222,-119.0801111
(estimated)
Elevation: 1148.8 ft. / 350.2 m (surveyed)
Variation: 19E (1985)
From city: 4 miles SE of OTHELLO, WA
Time zone: UTC -7 (UTC -8 during Standard Time)
Zip code: 99344

Airport Operations

Airport use: Open to the public
Activation date: 02/1962
Control tower: no
ARTCC: SEATTLE CENTER
FSS: SEATTLE FLIGHT SERVICE STATION
NOTAMs facility: SEA (NOTAM-D service available)
Attendance: UNATNDD
Wind indicator: lighted
Segmented circle: yes
Lights: ACTVT REIL RWY 07 & RWY 25; PAPI RWY 25; MIRL RWY 07/25 - CTAF.
Beacon: white-green (lighted land airport)
Operates sunset to sunrise.

Airport Communications

CTAF: 122.9

Nearby radio navigation aids

VOR radial/distance  VOR name  Freq  Var
MWHr141/26.8MOSES LAKE VOR/DME115.0018E
PSCr348/31.5PASCO VOR/DME109.8015E
EPHr137/37.7EPHRATA VORTAC112.6021E

Airport Services

Fuel available: 100LL
Parking: tiedowns
Airframe service: NONE
Powerplant service: NONE
Bottled oxygen: NONE
Bulk oxygen: NONE

Runway Information

Runway 7/25

Dimensions: 4000 x 75 ft. / 1219 x 23 m
Surface: asphalt, in excellent condition
Weight bearing capacity: 
Single wheel: 16.0
Runway edge lights: medium intensity
RUNWAY 7  RUNWAY 25
Latitude: 46-47.660377N46-47.645680N
Longitude: 119-05.285473W119-04.327593W
Elevation: 1137.6 ft.1148.8 ft.
Traffic pattern: leftleft
Markings: basic, in good conditionbasic, in good condition
Visual slope indicator: 2-light PAPI on left (3.00 degrees glide path)
Runway end identifier lights: yesyes
Touchdown point: yes, no lightsyes, no lights
Obstructions: 15 ft. road, 691 ft. from runway, 32:1 slope to clear15 ft. road, 687 ft. from runway, 32:1 slope to clear

Airport Ownership and Management from official FAA records

Ownership: Publicly-owned
Owner: PORT OF OTHELLO
705 EAST HEMLOCK
OTHELLO, WA 99344
Phone 509-488-2544
Manager: CHRIS FAIX
705 EAST HEMLOCK
OTHELLO, WA 99344
Phone (509) 761-1004

Airport Operational Statistics

Aircraft based on the field: 16
Single engine airplanes: 15
Helicopters: 1
    
Aircraft operations: avg 94/day *
83% local general aviation
17% transient general aviation
* for 12-month period ending 31 December 2018

Additional Remarks

IRRIGATION PIVOT OCCASIONALLY OPRS ACROSS EXTENDED CTRLN OF RY 25, APPROXIMATELY 750 FT BYD RY END, DURING GROWING SEASON.
FOR CD CTC GRANT COUNTY APCH AT 509-762-2842, WHEN APCH CLSD CTC SEATTLE ARTCC AT 253-351-3694.

Instrument Procedures

There are no published instrument procedures at S70.

Some nearby airports with instrument procedures:

KMWH - Grant County International Airport (27 nm N)
KRLD - Richland Airport (31 nm S)
KPSC - Tri-Cities Airport (32 nm S)
KEPH - Ephrata Municipal Airport (36 nm NW)
KALW - Walla Walla Regional Airport (53 nm SE)
 
Loc | Ops | Rwys | IFR | FBO | Links
Com | Nav | Svcs | Stats | Notes
Area around S70 (Othello Municipal Airport)
 
Road maps at: MapQuest Bing Google
 
Aerial photo
WARNING: Photo may not be current or correct
Aerial photo of S70 (Othello Municipal Airport)
Taken early August 2006

Do you have a better or more recent aerial photo of Othello Municipal Airport that you would like to share? If so, please send us your photo.

 
Sectional chart

 
Airport distance calculator
Flying to Othello Municipal Airport? Find the distance to fly.

From to S70

Sunrise and sunset
Times for 01-Apr-2020
 Local
(UTC-7)
 Zulu
(UTC)
Morning civil twilight06:0413:04
Sunrise06:3413:34
Sunset19:2502:25
Evening civil twilight19:5602:56

Current date and time
Zulu (UTC)  02-Apr-2020 03:48:22
Local (UTC-7)  01-Apr-2020 20:48:22
 
METAR
KMWH 
26nm N 
020252Z 26008KT 10SM CLR 07/M03 A2998 RMK AO2 SLP159 T00721028 53008
KRLD 
31nm S 
020335Z AUTO 23003KT 10SM SCT100 05/01 A3004 RMK AO2 T00540005
KPSC 
32nm S 
020253Z 26007KT 10SM CLR 07/00 A3003 RMK AO2 SLP170 T00670000 53012
KEPH 
35nm NW 
020253Z AUTO 31009KT 10SM CLR 06/M04 A2997 RMK AO2 SLP158 T00611039 53006
K1S5 
46nm SW 
020335Z AUTO 03005KT 10SM CLR 03/00 A3004 RMK AO2 T00300003
TAF
KMWH 
26nm N 
011724Z 0118/0218 33008KT P6SM VCSH FEW030 OVC050 FM012100 28007KT P6SM VCSH BKN050 OVC100 FM020300 33005KT P6SM BKN050 OVC100
KPSC 
32nm S 
011723Z 0118/0218 25008KT P6SM VCSH SCT060 BKN080 FM020300 VRB04KT P6SM FEW100
NOTAMs
Click for the latest NOTAMs
NOTAMs are issued by the DoD/FAA and will open in a separate window not controlled by AirNav.

 

 
 

FBO, Fuel Providers, and Aircraft Ground Support

  
 Business Name 
 
 Contact 
 
 Services / Description 
 
Fuel Prices
 
Comments
  
Port of Othello 509-488-2544
no information available

If you are affiliated with Port of Othello and would like to show here your services, contact info, web link, logo, and more, click here
100LL
SS $5.28 
 Updated 25-Mar-2020
 
   write
SS=Self service
Update Fuel Prices
 

Would you like to see your business listed on this page?

 If your business provides an interesting product or service to pilots, flight crews, aircraft, or users of the Othello Municipal Airport, you should consider listing it here.  To start the listing process, click on the button below
 
Add a business
 

Other Pages about Othello Municipal Airport

Update a link
 
Copyright © AirNav, LLC. All rights reserved. Privacy Policy  Contact